Time;durP1;ratioP1;P1;durP2;ratioP2;P2;SDS_P1;SDS_P2;PMS_P1;PMS_P2;Temp;Humidity;BMP_temperature;BMP_pressure;BME280_temperature;BME280_humidity;BME280_pressure;Samples;Min_cycle;Max_cycle;Signal;HPM_P1;HPM_P2
2021/11/16 00:02:30;;;;;;;26.38;16.17;;;;;;;;;;6200165;28;20129;-67
2021/11/16 00:05:32;;;;;;;24.42;16.33;;;;;;;;;;6200858;28;20045;-68
2021/11/16 00:08:33;;;;;;;26.70;16.30;;;;;;;;;;6216205;28;20705;-64
2021/11/16 00:11:35;;;;;;;23.25;16.75;;;;;;;;;;6202965;28;20196;-65
2021/11/16 00:14:36;;;;;;;24.00;16.05;;;;;;;;;;6215999;28;20046;-67
2021/11/16 00:17:39;;;;;;;23.73;15.55;;;;;;;;;;6209939;28;20065;-65
2021/11/16 00:20:43;;;;;;;23.48;16.02;;;;;;;;;;6208589;28;20926;-65
2021/11/16 00:23:46;;;;;;;25.45;16.48;;;;;;;;;;6211679;28;20050;-68
2021/11/16 00:26:48;;;;;;;26.27;16.30;;;;;;;;;;6205636;28;20066;-65
2021/11/16 00:29:49;;;;;;;24.90;16.85;;;;;;;;;;6215393;28;20164;-65
2021/11/16 00:32:52;;;;;;;24.27;16.85;;;;;;;;;;6197862;28;20099;-66
2021/11/16 00:35:53;;;;;;;27.85;17.02;;;;;;;;;;6202128;28;20042;-67
2021/11/16 00:38:55;;;;;;;23.13;16.05;;;;;;;;;;6217308;28;21341;-67
2021/11/16 00:41:56;;;;;;;24.75;15.77;;;;;;;;;;6204885;28;20046;-68
2021/11/16 00:44:58;;;;;;;22.45;15.75;;;;;;;;;;6213382;28;20046;-67
2021/11/16 00:48:01;;;;;;;21.42;15.32;;;;;;;;;;6196123;28;20046;-67
2021/11/16 00:51:03;;;;;;;22.00;15.38;;;;;;;;;;6204071;28;20136;-66
2021/11/16 00:54:05;;;;;;;25.17;15.88;;;;;;;;;;6217355;28;20076;-67
2021/11/16 00:57:07;;;;;;;24.48;15.50;;;;;;;;;;6206334;28;20096;-67
2021/11/16 01:00:10;;;;;;;23.40;14.98;;;;;;;;;;6203983;28;20132;-68
2021/11/16 01:03:14;;;;;;;22.63;15.82;;;;;;;;;;6200699;28;20111;-67
2021/11/16 01:06:15;;;;;;;;;;;;;;;;;;6198193;28;20052;-67
2021/11/16 01:09:17;;;;;;;24.75;16.30;;;;;;;;;;6204644;28;19925;-67
2021/11/16 01:12:18;;;;;;;23.77;16.38;;;;;;;;;;6199405;28;20045;-67
2021/11/16 01:15:20;;;;;;;25.77;16.92;;;;;;;;;;6198182;28;20042;-68
2021/11/16 01:18:24;;;;;;;23.23;15.65;;;;;;;;;;6203031;28;20588;-66
2021/11/16 01:21:26;;;;;;;27.05;16.65;;;;;;;;;;6201698;28;20046;-67
2021/11/16 01:24:27;;;;;;;24.65;16.05;;;;;;;;;;6211088;28;20369;-68
2021/11/16 01:27:33;;;;;;;21.50;14.65;;;;;;;;;;6202612;28;20524;-67
2021/11/16 01:30:35;;;;;;;23.83;16.63;;;;;;;;;;6195377;28;20948;-68
2021/11/16 01:33:42;;;;;;;25.52;16.67;;;;;;;;;;6203841;28;20073;-67
2021/11/16 01:36:43;;;;;;;23.65;15.57;;;;;;;;;;6193911;28;20048;-67
2021/11/16 01:39:45;;;;;;;21.33;15.18;;;;;;;;;;6209829;28;20176;-67
2021/11/16 01:42:47;;;;;;;24.45;16.13;;;;;;;;;;6198904;28;20050;-67
2021/11/16 01:45:51;;;;;;;24.38;16.10;;;;;;;;;;6195710;28;20041;-68
2021/11/16 01:48:54;;;;;;;26.63;16.55;;;;;;;;;;6204062;28;20066;-68
2021/11/16 01:51:56;;;;;;;23.77;15.95;;;;;;;;;;6199995;28;20139;-67
2021/11/16 01:54:57;;;;;;;25.77;17.67;;;;;;;;;;6203534;28;20192;-67
2021/11/16 01:57:59;;;;;;;33.00;20.30;;;;;;;;;;6203040;28;20049;-67
2021/11/16 02:01:03;;;;;;;27.83;18.08;;;;;;;;;;6191288;28;20045;-67
2021/11/16 02:04:06;;;;;;;26.20;16.77;;;;;;;;;;6205453;28;20686;-67
2021/11/16 02:07:07;;;;;;;24.20;16.60;;;;;;;;;;6197268;28;20041;-67
2021/11/16 02:10:09;;;;;;;31.65;18.42;;;;;;;;;;6203500;28;20057;-68
2021/11/16 02:13:11;;;;;;;23.40;16.67;;;;;;;;;;6204995;28;20093;-67
2021/11/16 02:16:13;;;;;;;25.20;16.20;;;;;;;;;;6194878;28;20042;-68
2021/11/16 02:19:17;;;;;;;27.27;17.23;;;;;;;;;;6209717;28;20445;-67
2021/11/16 02:22:20;;;;;;;28.90;17.73;;;;;;;;;;6202266;28;20464;-67
2021/11/16 02:25:21;;;;;;;25.73;17.55;;;;;;;;;;6196878;28;20413;-68
2021/11/16 02:28:22;;;;;;;25.95;17.13;;;;;;;;;;6205848;28;20107;-67
2021/11/16 02:31:24;;;;;;;23.08;16.52;;;;;;;;;;6191201;28;20700;-67
2021/11/16 02:34:26;;;;;;;25.63;16.27;;;;;;;;;;6209806;28;20056;-67
2021/11/16 02:37:32;;;;;;;28.33;16.70;;;;;;;;;;6192456;28;20046;-67
2021/11/16 02:40:33;;;;;;;24.05;16.02;;;;;;;;;;6201399;28;20042;-67
2021/11/16 02:43:36;;;;;;;25.63;17.10;;;;;;;;;;6212859;28;20113;-67
2021/11/16 02:46:38;;;;;;;25.43;16.53;;;;;;;;;;6194453;28;20524;-67
2021/11/16 02:49:41;;;;;;;23.98;15.38;;;;;;;;;;6212673;28;21011;-67
2021/11/16 02:52:44;;;;;;;23.23;15.10;;;;;;;;;;6197294;28;20052;-68
2021/11/16 02:55:46;;;;;;;23.85;15.48;;;;;;;;;;6203215;28;20664;-66
2021/11/16 02:58:47;;;;;;;24.35;16.08;;;;;;;;;;6215099;28;20054;-67
2021/11/16 03:01:49;;;;;;;25.77;16.48;;;;;;;;;;6192297;28;20057;-68
2021/11/16 03:04:51;;;;;;;23.65;15.93;;;;;;;;;;6217291;28;20073;-67
2021/11/16 03:07:56;;;;;;;26.50;17.02;;;;;;;;;;6204196;28;20053;-67
2021/11/16 03:10:59;;;;;;;22.48;15.57;;;;;;;;;;6208199;28;20041;-66
2021/11/16 03:14:01;;;;;;;24.63;16.55;;;;;;;;;;6215086;28;20050;-67
2021/11/16 03:17:02;;;;;;;28.98;16.77;;;;;;;;;;6202798;28;20069;-66
2021/11/16 03:20:08;;;;;;;24.73;15.95;;;;;;;;;;6218784;28;20046;-66
2021/11/16 03:23:14;;;;;;;26.50;17.23;;;;;;;;;;6206766;28;20042;-67
2021/11/16 03:26:16;;;;;;;25.63;16.52;;;;;;;;;;6203726;28;20061;-66
2021/11/16 03:29:19;;;;;;;26.48;17.08;;;;;;;;;;6215556;28;20050;-65
2021/11/16 03:32:21;;;;;;;24.63;15.55;;;;;;;;;;6199895;28;20049;-66
2021/11/16 03:35:23;;;;;;;29.05;17.63;;;;;;;;;;6207253;28;20042;-66
2021/11/16 03:38:26;;;;;;;25.10;17.30;;;;;;;;;;6212046;28;20103;-66
2021/11/16 03:41:28;;;;;;;23.30;15.70;;;;;;;;;;6206808;28;20434;-66
2021/11/16 03:44:29;;;;;;;22.83;15.63;;;;;;;;;;6217242;28;20049;-67
2021/11/16 03:47:30;;;;;;;27.50;16.45;;;;;;;;;;6197840;28;20046;-67
2021/11/16 03:50:33;;;;;;;24.05;15.98;;;;;;;;;;6202197;28;21013;-67
2021/11/16 03:53:36;;;;;;;30.13;17.98;;;;;;;;;;6214356;28;20108;-65
2021/11/16 03:56:37;;;;;;;27.52;17.92;;;;;;;;;;6206205;28;20128;-65
2021/11/16 03:59:39;;;;;;;27.30;17.83;;;;;;;;;;6217568;28;20049;-66
2021/11/16 04:02:40;;;;;;;25.73;17.65;;;;;;;;;;6198644;28;20615;-65
2021/11/16 04:05:42;;;;;;;31.58;17.77;;;;;;;;;;6208198;28;20037;-67
2021/11/16 04:08:45;;;;;;;26.25;17.35;;;;;;;;;;6216889;28;20050;-66
2021/11/16 04:11:46;;;;;;;26.00;17.50;;;;;;;;;;6207721;28;21099;-66
2021/11/16 04:14:47;;;;;;;25.00;17.48;;;;;;;;;;6215789;28;20077;-67
2021/11/16 04:17:50;;;;;;;31.35;18.40;;;;;;;;;;6197496;28;20704;-67
2021/11/16 04:20:54;;;;;;;25.15;17.55;;;;;;;;;;6207225;28;20073;-66
2021/11/16 04:23:57;;;;;;;27.85;17.85;;;;;;;;;;6214565;28;20045;-66
2021/11/16 04:26:58;;;;;;;25.42;18.00;;;;;;;;;;6207489;28;20093;-66
2021/11/16 04:30:00;;;;;;;29.90;18.05;;;;;;;;;;6216814;28;20402;-66
2021/11/16 04:33:02;;;;;;;28.95;17.08;;;;;;;;;;6197937;28;20632;-66
2021/11/16 04:36:03;;;;;;;28.30;18.23;;;;;;;;;;6203442;28;20188;-65
2021/11/16 04:39:07;;;;;;;27.90;18.10;;;;;;;;;;6215981;28;20054;-66
2021/11/16 04:42:08;;;;;;;26.52;17.38;;;;;;;;;;6202357;28;20045;-66
2021/11/16 04:45:13;;;;;;;27.75;18.23;;;;;;;;;;6211660;28;20069;-66
2021/11/16 04:48:26;;;;;;;25.23;17.98;;;;;;;;;;6205106;28;20050;-66
2021/11/16 04:51:43;;;;;;;29.63;19.15;;;;;;;;;;6206648;28;20046;-66
2021/11/16 05:04:57;;;;;;;30.00;19.75;;;;;;;;;;6283147;28;20056;-67
2021/11/16 05:08:01;;;;;;;34.03;19.67;;;;;;;;;;6278988;28;20045;-68
2021/11/16 05:11:02;;;;;;;33.17;20.02;;;;;;;;;;6275009;28;20491;-67
2021/11/16 05:14:05;;;;;;;27.45;19.50;;;;;;;;;;6286388;28;20045;-67
2021/11/16 05:17:06;;;;;;;38.50;20.35;;;;;;;;;;6270086;28;20102;-67
2021/11/16 05:20:08;;;;;;;31.20;18.92;;;;;;;;;;6276348;28;20412;-68
2021/11/16 05:23:10;;;;;;;28.80;18.90;;;;;;;;;;6279467;28;20140;-67
2021/11/16 05:26:12;;;;;;;29.63;18.65;;;;;;;;;;6276356;28;20048;-67
2021/11/16 05:29:14;;;;;;;31.23;20.05;;;;;;;;;;6287215;28;20090;-67
2021/11/16 05:32:16;;;;;;;30.13;19.30;;;;;;;;;;6268342;28;20082;-68
2021/11/16 05:35:17;;;;;;;28.02;19.77;;;;;;;;;;6274607;28;20058;-67
2021/11/16 05:38:23;;;;;;;31.00;20.50;;;;;;;;;;6283331;28;20047;-67
2021/11/16 05:41:24;;;;;;;30.50;19.70;;;;;;;;;;6272943;28;20049;-67
2021/11/16 05:44:28;;;;;;;30.83;20.42;;;;;;;;;;6286748;28;20520;-68
2021/11/16 05:47:30;;;;;;;31.95;20.42;;;;;;;;;;6266773;28;20048;-67
2021/11/16 05:50:32;;;;;;;33.97;20.48;;;;;;;;;;6294748;28;20697;-66
2021/11/16 05:53:36;;;;;;;29.85;20.38;;;;;;;;;;6310169;28;20052;-68
2021/11/16 05:56:38;;;;;;;33.63;20.33;;;;;;;;;;6296504;28;20115;-68
2021/11/16 05:59:41;;;;;;;32.17;21.35;;;;;;;;;;6308787;28;20051;-67
2021/11/16 06:02:43;;;;;;;32.60;21.45;;;;;;;;;;6291946;28;20545;-67
2021/11/16 06:05:44;;;;;;;34.33;21.35;;;;;;;;;;6296829;28;20048;-67
2021/11/16 06:08:48;;;;;;;34.75;20.35;;;;;;;;;;6296345;28;20399;-67
2021/11/16 06:11:49;;;;;;;33.83;20.42;;;;;;;;;;6280557;28;20056;-67
2021/11/16 06:14:52;;;;;;;36.28;20.80;;;;;;;;;;6290903;28;20044;-67
2021/11/16 06:17:53;;;;;;;32.50;20.33;;;;;;;;;;6262014;28;20049;-67
2021/11/16 06:20:55;;;;;;;33.28;20.35;;;;;;;;;;6253199;28;20752;-67
2021/11/16 06:23:57;;;;;;;33.28;20.77;;;;;;;;;;6261226;28;20049;-67
2021/11/16 06:26:58;;;;;;;31.55;20.15;;;;;;;;;;6250149;28;20132;-67
2021/11/16 06:30:01;;;;;;;29.13;20.33;;;;;;;;;;6265543;28;20045;-67
2021/11/16 06:33:03;;;;;;;31.52;19.65;;;;;;;;;;6245552;28;20514;-67
2021/11/16 06:36:05;;;;;;;34.47;19.73;;;;;;;;;;6250243;28;20183;-66
2021/11/16 06:39:07;;;;;;;33.35;19.52;;;;;;;;;;6264435;28;20491;-67
2021/11/16 06:42:13;;;;;;;35.40;20.05;;;;;;;;;;6248249;28;20033;-67
2021/11/16 06:45:16;;;;;;;32.38;20.17;;;;;;;;;;6254790;28;20045;-67
2021/11/16 06:48:18;;;;;;;31.75;20.92;;;;;;;;;;6254407;28;20034;-68
2021/11/16 06:51:19;;;;;;;37.15;20.60;;;;;;;;;;6249295;28;20057;-67
2021/11/16 06:54:22;;;;;;;36.15;21.77;;;;;;;;;;6262355;28;20049;-67
2021/11/16 06:57:26;;;;;;;33.97;21.33;;;;;;;;;;6252123;28;20170;-67
2021/11/16 07:00:32;;;;;;;36.88;20.98;;;;;;;;;;6254643;28;20068;-67
2021/11/16 07:03:33;;;;;;;33.13;21.42;;;;;;;;;;6255301;28;20044;-67
2021/11/16 07:06:35;;;;;;;34.65;20.33;;;;;;;;;;6250253;28;20221;-67
2021/11/16 07:09:39;;;;;;;29.55;19.05;;;;;;;;;;6260540;28;20061;-67
2021/11/16 07:12:40;;;;;;;34.17;20.30;;;;;;;;;;6253778;28;20041;-66
2021/11/16 07:15:44;;;;;;;35.45;20.45;;;;;;;;;;6248569;28;20109;-67
2021/11/16 07:18:46;;;;;;;;;;;;;;;;;;6256616;28;20049;-67
2021/11/16 07:21:49;;;;;;;28.75;19.00;;;;;;;;;;6251911;28;20276;-66
2021/11/16 07:24:52;;;;;;;33.50;19.83;;;;;;;;;;6261227;28;20404;-67
2021/11/16 07:27:55;;;;;;;31.70;19.25;;;;;;;;;;6248550;28;20404;-67
2021/11/16 07:30:58;;;;;;;33.20;20.52;;;;;;;;;;6245211;28;20045;-67
2021/11/16 07:34:07;;;;;;;30.95;20.67;;;;;;;;;;6259948;28;20040;-66
2021/11/16 07:37:10;;;;;;;29.80;19.98;;;;;;;;;;6242520;28;20131;-67
2021/11/16 07:40:13;;;;;;;27.92;19.17;;;;;;;;;;6251997;28;20045;-68
2021/11/16 07:43:16;;;;;;;28.52;20.33;;;;;;;;;;6261567;28;20061;-67
2021/11/16 07:46:19;;;;;;;29.58;17.98;;;;;;;;;;6260839;28;20542;-66
2021/11/16 07:49:21;;;;;;;28.10;19.30;;;;;;;;;;6274711;28;20080;-66
2021/11/16 07:52:27;;;;;;;26.88;18.63;;;;;;;;;;6249016;28;20069;-68
2021/11/16 07:55:28;;;;;;;27.33;18.48;;;;;;;;;;6244793;28;20848;-67
2021/11/16 07:58:32;;;;;;;28.23;17.75;;;;;;;;;;6288340;28;20614;-67
2021/11/16 08:01:39;;;;;;;28.45;17.52;;;;;;;;;;6250221;28;20053;-67
2021/11/16 08:04:45;;;;;;;26.67;17.17;;;;;;;;;;6281763;28;20522;-67
2021/11/16 08:08:05;;;;;;;31.13;18.33;;;;;;;;;;6247337;28;20509;-67
2021/11/16 08:11:12;;;;;;;25.70;17.83;;;;;;;;;;6238405;28;20167;-67
2021/11/16 08:14:15;;;;;;;25.13;16.90;;;;;;;;;;6255564;28;20126;-67
2021/11/16 08:17:18;;;;;;;27.20;17.65;;;;;;;;;;6242279;28;20059;-68
2021/11/16 08:20:21;;;;;;;26.60;18.65;;;;;;;;;;6251803;28;20106;-68
2021/11/16 08:23:22;;;;;;;27.03;18.57;;;;;;;;;;6257694;28;20120;-67
2021/11/16 08:26:25;;;;;;;28.58;17.67;;;;;;;;;;6248251;28;20076;-67
2021/11/16 08:29:28;;;;;;;27.60;18.90;;;;;;;;;;6260833;28;20077;-67
2021/11/16 08:32:36;;;;;;;31.25;18.50;;;;;;;;;;6240585;28;20136;-67
2021/11/16 08:35:37;;;;;;;28.45;18.13;;;;;;;;;;6250988;28;20045;-67
2021/11/16 08:38:40;;;;;;;24.63;17.38;;;;;;;;;;6255802;28;20114;-68
2021/11/16 08:41:41;;;;;;;29.10;18.77;;;;;;;;;;6240040;28;20065;-67
2021/11/16 08:44:48;;;;;;;30.60;18.67;;;;;;;;;;6250376;28;20049;-67
2021/11/16 08:47:52;;;;;;;29.05;19.08;;;;;;;;;;6226458;28;20052;-67
2021/11/16 08:50:53;;;;;;;;;;;;;;;;;;6244319;28;20171;-67
2021/11/16 08:53:54;;;;;;;25.85;17.88;;;;;;;;;;6255987;28;20003;-67
2021/11/16 08:56:56;;;;;;;27.10;18.85;;;;;;;;;;6267309;28;20206;-67
2021/11/16 08:59:58;;;;;;;26.38;17.50;;;;;;;;;;6264446;28;20065;-67
2021/11/16 09:03:05;;;;;;;24.30;16.15;;;;;;;;;;6231607;28;20488;-67
2021/11/16 09:06:17;;;;;;;23.00;16.55;;;;;;;;;;6238780;28;20051;-67
2021/11/16 09:09:19;;;;;;;24.08;16.83;;;;;;;;;;6249055;28;20104;-67
2021/11/16 09:12:20;;;;;;;24.50;16.55;;;;;;;;;;6236290;28;20347;-67
2021/11/16 09:15:30;;;;;;;23.25;15.98;;;;;;;;;;6249900;28;20072;-68
2021/11/16 09:18:38;;;;;;;23.83;15.23;;;;;;;;;;6257273;28;20206;-67
2021/11/16 09:21:41;;;;;;;20.55;14.82;;;;;;;;;;6246452;28;20049;-67
2021/11/16 09:24:43;;;;;;;23.40;15.05;;;;;;;;;;6265108;28;20609;-67
2021/11/16 09:27:46;;;;;;;24.77;16.10;;;;;;;;;;6248258;28;20053;-67
2021/11/16 09:30:47;;;;;;;21.63;15.95;;;;;;;;;;6245376;28;20053;-67
2021/11/16 09:33:50;;;;;;;24.38;16.13;;;;;;;;;;6254954;28;20123;-67
2021/11/16 09:36:53;;;;;;;23.92;15.70;;;;;;;;;;6247815;28;20045;-67
2021/11/16 09:39:56;;;;;;;23.85;16.63;;;;;;;;;;6254769;28;20530;-67
2021/11/16 09:43:00;;;;;;;23.20;16.23;;;;;;;;;;6254180;28;20045;-68
2021/11/16 09:46:06;;;;;;;24.08;16.00;;;;;;;;;;6249689;28;20040;-68
2021/11/16 09:49:12;;;;;;;26.35;16.58;;;;;;;;;;6266435;28;20045;-67
2021/11/16 09:52:15;;;;;;;22.38;16.05;;;;;;;;;;6256245;28;20094;-67
2021/11/16 09:55:18;;;;;;;24.38;16.10;;;;;;;;;;6258632;28;20126;-67
2021/11/16 09:58:20;;;;;;;20.52;15.65;;;;;;;;;;6267352;28;20063;-67
2021/11/16 10:01:26;;;;;;;22.90;16.63;;;;;;;;;;6246443;28;20171;-68
2021/11/16 10:04:35;;;;;;;23.20;16.90;;;;;;;;;;6266249;28;20072;-67
2021/11/16 10:07:36;;;;;;;19.55;14.55;;;;;;;;;;6255354;28;20063;-67
2021/11/16 10:10:39;;;;;;;18.63;13.35;;;;;;;;;;6257560;28;20084;-67
2021/11/16 10:13:40;;;;;;;19.88;14.80;;;;;;;;;;6261645;28;20387;-68
2021/11/16 10:16:41;;;;;;;24.17;15.73;;;;;;;;;;6248924;28;20048;-68
2021/11/16 10:19:44;;;;;;;19.77;15.10;;;;;;;;;;6266109;28;20505;-68
2021/11/16 10:22:48;;;;;;;20.07;15.43;;;;;;;;;;6256649;28;20132;-68
2021/11/16 10:25:49;;;;;;;;;;;;;;;;;;6260006;28;20029;-67
2021/11/16 10:28:50;;;;;;;22.27;15.18;;;;;;;;;;6269889;28;19966;-67
2021/11/16 10:31:52;;;;;;;23.30;16.77;;;;;;;;;;6249207;28;20132;-67
2021/11/16 10:35:06;;;;;;;22.95;16.13;;;;;;;;;;6259158;28;20541;-67
2021/11/16 10:38:09;;;;;;;21.85;15.07;;;;;;;;;;6259043;28;20171;-67
2021/11/16 10:41:12;;;;;;;25.08;16.67;;;;;;;;;;6254610;28;20045;-67
2021/11/16 10:44:15;;;;;;;21.97;15.93;;;;;;;;;;6263368;28;20056;-67
2021/11/16 10:47:19;;;;;;;24.25;16.73;;;;;;;;;;6249139;28;20886;-68
2021/11/16 10:50:24;;;;;;;26.45;16.90;;;;;;;;;;6254996;28;20092;-68
2021/11/16 10:53:26;;;;;;;26.45;16.38;;;;;;;;;;6266675;28;20061;-67
2021/11/16 10:56:28;;;;;;;24.35;16.05;;;;;;;;;;6259799;28;20087;-67
2021/11/16 10:59:31;;;;;;;25.38;16.02;;;;;;;;;;6269163;28;20102;-67
2021/11/16 11:02:32;;;;;;;24.85;15.90;;;;;;;;;;6245028;28;20049;-67
2021/11/16 11:05:35;;;;;;;24.77;14.77;;;;;;;;;;6248174;28;20053;-67
2021/11/16 11:08:37;;;;;;;23.50;16.85;;;;;;;;;;6265855;28;20065;-67
2021/11/16 11:11:41;;;;;;;26.33;16.85;;;;;;;;;;6256110;28;20049;-67
2021/11/16 11:14:45;;;;;;;25.55;16.35;;;;;;;;;;6278300;28;20066;-67
2021/11/16 11:17:46;;;;;;;23.00;15.90;;;;;;;;;;6266651;28;20045;-67
2021/11/16 11:20:49;;;;;;;27.73;17.38;;;;;;;;;;6275175;28;20048;-67
2021/11/16 11:23:55;;;;;;;22.70;15.20;;;;;;;;;;6292428;28;20182;-67
2021/11/16 11:26:58;;;;;;;24.15;15.18;;;;;;;;;;6282445;28;20636;-67
2021/11/16 11:30:00;;;;;;;16.80;10.90;;;;;;;;;;6280561;28;20065;-67
2021/11/16 11:33:02;;;;;;;23.52;15.55;;;;;;;;;;6249591;28;20071;-67
2021/11/16 11:36:18;;;;;;;23.23;16.27;;;;;;;;;;6262242;28;20731;-67
2021/11/16 11:39:23;;;;;;;22.23;15.25;;;;;;;;;;6264923;28;20414;-67
2021/11/16 11:42:24;;;;;;;24.85;17.00;;;;;;;;;;6254448;28;20459;-67
2021/11/16 11:45:28;;;;;;;20.92;14.80;;;;;;;;;;6257945;28;20032;-67
2021/11/16 11:48:30;;;;;;;25.27;16.10;;;;;;;;;;6258405;28;20045;-67
2021/11/16 11:51:32;;;;;;;22.13;15.23;;;;;;;;;;6255335;28;20439;-68
2021/11/16 11:54:34;;;;;;;25.50;16.02;;;;;;;;;;6266537;28;20052;-67
2021/11/16 11:57:36;;;;;;;24.80;16.67;;;;;;;;;;6253564;28;20453;-67
2021/11/16 12:00:38;;;;;;;25.92;16.75;;;;;;;;;;6250210;28;20173;-68
2021/11/16 12:03:41;;;;;;;25.17;16.63;;;;;;;;;;6261686;28;20527;-68
2021/11/16 12:06:42;;;;;;;25.58;16.98;;;;;;;;;;6256338;28;20435;-67
2021/11/16 12:09:47;;;;;;;21.27;16.20;;;;;;;;;;6260213;28;20049;-67
2021/11/16 12:12:49;;;;;;;22.85;16.73;;;;;;;;;;6249902;28;20056;-67
2021/11/16 12:15:52;;;;;;;22.63;16.30;;;;;;;;;;6250705;28;20768;-67
2021/11/16 12:19:03;;;;;;;23.95;16.38;;;;;;;;;;6261898;28;20132;-67
2021/11/16 12:22:12;;;;;;;21.25;15.82;;;;;;;;;;6253472;28;20575;-67
2021/11/16 12:25:23;;;;;;;22.48;16.20;;;;;;;;;;6256678;28;20148;-67
2021/11/16 12:28:25;;;;;;;22.42;16.20;;;;;;;;;;6250644;28;20041;-67
2021/11/16 12:31:29;;;;;;;26.38;16.88;;;;;;;;;;6247577;28;20044;-67
2021/11/16 12:34:35;;;;;;;23.98;16.60;;;;;;;;;;6271215;28;20049;-67
2021/11/16 12:37:42;;;;;;;25.60;16.73;;;;;;;;;;6254944;28;20555;-67
2021/11/16 12:40:45;;;;;;;27.17;16.92;;;;;;;;;;6250791;28;20060;-67
2021/11/16 12:43:46;;;;;;;25.23;17.48;;;;;;;;;;6265112;28;20485;-67
2021/11/16 12:47:04;;;;;;;28.00;17.33;;;;;;;;;;6250015;28;20508;-67
2021/11/16 12:50:10;;;;;;;27.35;17.80;;;;;;;;;;6258945;28;20124;-67
2021/11/16 12:53:12;;;;;;;25.73;17.73;;;;;;;;;;6262192;28;20565;-66
2021/11/16 12:56:14;;;;;;;28.10;17.83;;;;;;;;;;6241650;28;20045;-66
2021/11/16 12:59:17;;;;;;;23.52;17.17;;;;;;;;;;6265073;28;20519;-66
2021/11/16 13:02:21;;;;;;;28.30;18.05;;;;;;;;;;6238232;28;20667;-66
2021/11/16 13:05:30;;;;;;;25.85;17.75;;;;;;;;;;6252586;28;20049;-66
2021/11/16 13:08:32;;;;;;;28.17;18.63;;;;;;;;;;6274585;28;20041;-66
2021/11/16 13:11:42;;;;;;;26.80;17.92;;;;;;;;;;6271995;28;20106;-66
2021/11/16 13:14:46;;;;;;;24.27;17.10;;;;;;;;;;6279230;28;20564;-66
2021/11/16 13:17:51;;;;;;;26.08;17.90;;;;;;;;;;6245559;28;20646;-66
2021/11/16 13:20:55;;;;;;;26.80;18.75;;;;;;;;;;6259521;28;20064;-66
2021/11/16 13:23:58;;;;;;;29.67;19.33;;;;;;;;;;6269407;28;20052;-66
2021/11/16 13:27:03;;;;;;;30.98;19.15;;;;;;;;;;6260007;28;20048;-66
2021/11/16 13:30:20;;;;;;;28.83;19.02;;;;;;;;;;6271612;28;20507;-67
2021/11/16 13:33:40;;;;;;;29.38;18.70;;;;;;;;;;6261207;28;20080;-66
2021/11/16 13:36:43;;;;;;;30.63;19.33;;;;;;;;;;6258825;28;20051;-66
2021/11/16 13:39:45;;;;;;;29.63;19.63;;;;;;;;;;6276481;28;20044;-66
2021/11/16 13:42:50;;;;;;;28.10;19.25;;;;;;;;;;6271555;28;20134;-67
2021/11/16 13:45:51;;;;;;;28.27;18.13;;;;;;;;;;6266161;28;20040;-66
2021/11/16 13:48:52;;;;;;;29.33;18.95;;;;;;;;;;6295023;28;20131;-66
2021/11/16 13:51:54;;;;;;;33.75;20.35;;;;;;;;;;6283228;28;20136;-66
2021/11/16 13:54:56;;;;;;;26.35;18.95;;;;;;;;;;6295622;28;20044;-66
2021/11/16 13:58:01;;;;;;;30.20;19.95;;;;;;;;;;6283635;28;20121;-66
2021/11/16 14:01:03;;;;;;;30.35;20.40;;;;;;;;;;6280513;28;20048;-66
2021/11/16 14:04:08;;;;;;;34.65;21.38;;;;;;;;;;6290996;28;20044;-66
2021/11/16 14:07:14;;;;;;;34.92;21.35;;;;;;;;;;6284010;28;20119;-66
2021/11/16 14:10:17;;;;;;;32.63;19.48;;;;;;;;;;6288383;28;20064;-67
2021/11/16 14:13:21;;;;;;;30.15;19.23;;;;;;;;;;6262397;28;20521;-66
2021/11/16 14:16:22;;;;;;;;;;;;;;;;;;6252524;28;20060;-66
2021/11/16 14:19:24;;;;;;;29.58;17.27;;;;;;;;;;6263900;28;20321;-66
2021/11/16 14:22:26;;;;;;;33.95;18.15;;;;;;;;;;6252391;28;20039;-66
2021/11/16 14:25:31;;;;;;;28.88;18.30;;;;;;;;;;6261345;28;20274;-65
2021/11/16 14:28:32;;;;;;;;;;;;;;;;;;6265472;28;20052;-66
2021/11/16 14:31:35;;;;;;;31.75;18.42;;;;;;;;;;6260155;28;20023;-66
2021/11/16 14:34:37;;;;;;;28.52;18.17;;;;;;;;;;6267556;28;20052;-66
2021/11/16 14:37:47;;;;;;;29.45;18.83;;;;;;;;;;6256096;28;20052;-66
2021/11/16 14:40:49;;;;;;;29.67;19.35;;;;;;;;;;6253214;28;20105;-66
2021/11/16 14:44:00;;;;;;;32.30;18.75;;;;;;;;;;6266819;28;20131;-66
2021/11/16 14:47:04;;;;;;;29.88;18.50;;;;;;;;;;6249463;28;20675;-66
2021/11/16 14:50:10;;;;;;;33.35;19.73;;;;;;;;;;6262599;28;20060;-67
2021/11/16 14:53:13;;;;;;;33.03;20.05;;;;;;;;;;6264937;28;20056;-66
2021/11/16 14:56:15;;;;;;;34.17;19.83;;;;;;;;;;6239101;28;20180;-65
2021/11/16 14:59:18;;;;;;;29.33;18.50;;;;;;;;;;6256184;28;20049;-65
2021/11/16 15:02:21;;;;;;;30.38;20.13;;;;;;;;;;6250895;28;20041;-65
2021/11/16 15:05:23;;;;;;;32.92;19.85;;;;;;;;;;6253057;28;20134;-67
2021/11/16 15:08:26;;;;;;;28.63;19.50;;;;;;;;;;6266192;28;20142;-65
2021/11/16 15:11:30;;;;;;;30.42;19.50;;;;;;;;;;6256953;28;20053;-65
2021/11/16 15:14:31;;;;;;;;;;;;;;;;;;6267868;28;20057;-65
2021/11/16 15:17:44;;;;;;;31.98;19.48;;;;;;;;;;6241297;28;20723;-66
2021/11/16 15:20:49;;;;;;;33.25;20.83;;;;;;;;;;6254424;28;20041;-66
2021/11/16 15:23:50;;;;;;;34.63;20.48;;;;;;;;;;6255563;28;20041;-65
2021/11/16 15:26:52;;;;;;;33.00;20.42;;;;;;;;;;6255934;28;20044;-65
2021/11/16 15:30:15;;;;;;;33.95;20.67;;;;;;;;;;6266910;28;20126;-65
2021/11/16 15:33:18;;;;;;;35.58;21.27;;;;;;;;;;6258500;28;20124;-65
2021/11/16 15:36:20;;;;;;;36.95;21.73;;;;;;;;;;6253850;28;20396;-65
2021/11/16 15:39:22;;;;;;;38.88;22.27;;;;;;;;;;6262521;28;20493;-65
2021/11/16 15:42:23;;;;;;;34.20;21.75;;;;;;;;;;6251239;28;20171;-65
2021/11/16 15:45:34;;;;;;;33.53;21.40;;;;;;;;;;6252614;28;20568;-66
2021/11/16 15:48:47;;;;;;;38.22;22.20;;;;;;;;;;6274169;28;20179;-65
2021/11/16 15:51:56;;;;;;;34.78;21.33;;;;;;;;;;6254192;28;20041;-65
2021/11/16 15:58:21;;;;;;;34.50;20.27;;;;;;;;;;6208703;28;20482;-65
2021/11/16 16:01:30;;;;;;;32.67;18.98;;;;;;;;;;6201960;28;20041;-65
2021/11/16 16:04:33;;;;;;;31.33;19.10;;;;;;;;;;6215609;28;20208;-65
2021/11/16 16:07:34;;;;;;;33.67;19.42;;;;;;;;;;6202382;28;20140;-65
2021/11/16 16:10:37;;;;;;;37.13;21.33;;;;;;;;;;6204158;28;20060;-65
2021/11/16 16:13:38;;;;;;;34.65;20.77;;;;;;;;;;6213758;28;20140;-65
2021/11/16 16:16:45;;;;;;;33.72;20.35;;;;;;;;;;6196668;28;20061;-66
2021/11/16 16:19:50;;;;;;;33.33;20.25;;;;;;;;;;6214935;28;20054;-66
2021/11/16 16:22:51;;;;;;;;;;;;;;;;;;6206376;28;20613;-65
2021/11/16 16:25:54;;;;;;;31.67;20.02;;;;;;;;;;6206886;28;19921;-66
2021/11/16 16:28:56;;;;;;;37.70;21.60;;;;;;;;;;6218248;28;20065;-65
2021/11/16 16:31:58;;;;;;;35.15;21.10;;;;;;;;;;6189379;28;20674;-65
2021/11/16 16:35:01;;;;;;;35.63;21.90;;;;;;;;;;6213300;28;20192;-65
2021/11/16 16:38:02;;;;;;;34.83;20.30;;;;;;;;;;6201029;28;20069;-65
2021/11/16 16:41:11;;;;;;;33.22;21.15;;;;;;;;;;6200441;28;20046;-65
2021/11/16 16:44:13;;;;;;;35.67;21.65;;;;;;;;;;6212345;28;20084;-65
2021/11/16 16:47:18;;;;;;;38.65;21.73;;;;;;;;;;6195187;28;20058;-66
2021/11/16 16:50:21;;;;;;;30.58;19.52;;;;;;;;;;6206172;28;20128;-66
2021/11/16 16:53:22;;;;;;;34.22;20.55;;;;;;;;;;6213810;28;20163;-66
2021/11/16 16:56:27;;;;;;;31.73;19.77;;;;;;;;;;6224397;28;20124;-65
2021/11/16 16:59:30;;;;;;;34.58;19.77;;;;;;;;;;6264246;28;20068;-65
2021/11/16 17:02:32;;;;;;;35.25;20.60;;;;;;;;;;6238849;28;20075;-65
2021/11/16 17:05:35;;;;;;;38.42;22.10;;;;;;;;;;6249930;28;20057;-66
2021/11/16 17:08:38;;;;;;;33.42;20.83;;;;;;;;;;6264241;28;20666;-65
2021/11/16 17:11:39;;;;;;;38.07;23.43;;;;;;;;;;6250940;28;20473;-65
2021/11/16 17:14:44;;;;;;;38.88;21.73;;;;;;;;;;6263678;28;20052;-65
2021/11/16 17:17:45;;;;;;;35.85;22.75;;;;;;;;;;6238442;28;20460;-64
2021/11/16 17:20:50;;;;;;;36.40;22.25;;;;;;;;;;6249982;28;20043;-66
2021/11/16 17:23:52;;;;;;;36.28;21.33;;;;;;;;;;6261984;28;20202;-65
2021/11/16 17:26:54;;;;;;;35.47;21.50;;;;;;;;;;6252538;28;20037;-65
2021/11/16 17:29:55;;;;;;;34.30;21.02;;;;;;;;;;6262727;28;20527;-65
2021/11/16 17:32:57;;;;;;;36.67;21.98;;;;;;;;;;6244134;28;20133;-65
2021/11/16 17:35:59;;;;;;;36.97;21.40;;;;;;;;;;6250661;28;20071;-65
2021/11/16 17:39:05;;;;;;;38.08;22.80;;;;;;;;;;6256098;28;20454;-65
2021/11/16 17:42:07;;;;;;;38.22;23.25;;;;;;;;;;6251929;28;20146;-65
2021/11/16 17:45:08;;;;;;;38.60;23.38;;;;;;;;;;6258175;28;20452;-66
2021/11/16 17:48:10;;;;;;;40.80;23.27;;;;;;;;;;6250779;28;20132;-65
2021/11/16 17:51:12;;;;;;;40.97;24.20;;;;;;;;;;6249534;28;20072;-65
2021/11/16 17:54:15;;;;;;;40.67;24.02;;;;;;;;;;6260107;28;20045;-65
2021/11/16 17:57:16;;;;;;;39.88;24.23;;;;;;;;;;6254800;28;20186;-65
2021/11/16 18:00:18;;;;;;;43.97;25.33;;;;;;;;;;6253457;28;20056;-65
2021/11/16 18:03:21;;;;;;;44.10;25.58;;;;;;;;;;6253203;28;20044;-65
2021/11/16 18:09:42;;;;;;;41.03;24.25;;;;;;;;;;6268447;28;20045;-65